Main page
METAR-TAF:

METAR-TAF

Airports :

Bolzano, Italy

latitude: 46-28N, longitude: 011-20E, elevation: 262 m

Current weather observation

The report was made 1 hour and 5 minutes ago, at 11:50 UTC
Wind 7 kt from the South/Southeast, varying between East/Southeast and South
Temperature 28°C
Humidity 40%
Pressure 1015 hPa
Visibility 10 km or more
Few clouds at a height of 6500 ft

METAR: LIPB 171150Z 15007KT 110V190 9999 FEW065 28/13 Q1015

Time: 14:55 (12:55 UTC)

Forecast

The report was made 1 hour and 55 minutes ago, at 11:00 UTC
Forecast valid from 17 at 12 UTC to 18 at 12 UTC
Wind 5 kt from variable directions
Visibility 10 km or more
Few clouds at a height of 4000 ft
Becoming
from 17 at 12 UTC to 17 at 14 UTC
Wind 12 kt from the South
Becoming
from 17 at 18 UTC to 17 at 20 UTC
Wind 5 kt from variable directions

TAF: LIPB 171100Z 1712/1812 VRB05KT 9999 FEW040 BECMG 1712/1714 18012KT BECMG 1718/1720 VRB05KT

Weather observations and forecasts of more than 4000 airports (METAR and TAF reports).

The available stations are represented by yellow and red dots on the map.

Hover mouse over dot to see the name of the station.

Then click to see weather observations and forecasts.

To change the map : click on the green buttons with a black cross to zoom in, on the green button with a dash to zoom out, or on the green arrows for adjacent maps.


METAR-TAF: